Time;durP1;ratioP1;P1;durP2;ratioP2;P2;SDS_P1;SDS_P2;PMS_P1;PMS_P2;Temp;Humidity;BMP_temperature;BMP_pressure;BME280_temperature;BME280_humidity;BME280_pressure;Samples;Min_cycle;Max_cycle;Signal;HPM_P1;HPM_P2
2022/08/22 00:01:57;;;;;;;14.87;9.00;;;;;;;;;;5013684;28;20202;-70
2022/08/22 00:04:36;;;;;;;14.23;8.57;;;;;;;;;;5015180;28;20180;-69
2022/08/22 00:07:29;;;;;;;15.83;8.33;;;;;;;;;;5013702;28;20176;-68
2022/08/22 00:09:56;;;;;;;17.87;7.83;;;;;;;;;;5014810;28;20211;-68
2022/08/22 00:12:29;;;;;;;20.97;7.47;;;;;;;;;;5015037;28;20191;-68
2022/08/22 00:15:03;;;;;;;11.00;7.97;;;;;;;;;;5013594;28;20240;-68
2022/08/22 00:17:29;;;;;;;12.53;7.63;;;;;;;;;;5014969;28;20191;-68
2022/08/22 00:20:12;;;;;;;14.37;8.97;;;;;;;;;;5014767;28;20168;-68
2022/08/22 00:22:44;;;;;;;16.80;7.47;;;;;;;;;;5014835;28;20606;-68
2022/08/22 00:25:28;;;;;;;18.00;7.07;;;;;;;;;;5015293;28;20176;-68
2022/08/22 00:27:57;;;;;;;13.73;6.30;;;;;;;;;;5014525;28;20556;-68
2022/08/22 00:30:23;;;;;;;12.80;6.47;;;;;;;;;;5015049;28;20644;-68
2022/08/22 00:32:52;;;;;;;13.80;7.53;;;;;;;;;;5016976;28;20203;-68
2022/08/22 00:35:24;;;;;;;11.17;7.20;;;;;;;;;;5014405;28;20180;-68
2022/08/22 00:38:01;;;;;;;15.77;6.70;;;;;;;;;;5015929;28;20302;-68
2022/08/22 00:40:27;;;;;;;10.37;6.33;;;;;;;;;;5018775;28;20175;-68
2022/08/22 00:42:59;;;;;;;9.97;5.80;;;;;;;;;;5019379;28;20196;-68
2022/08/22 00:45:28;;;;;;;17.40;7.23;;;;;;;;;;5019363;28;20632;-68
2022/08/22 00:48:06;;;;;;;17.90;7.27;;;;;;;;;;5019579;28;20268;-68
2022/08/22 00:50:39;;;;;;;11.90;6.40;;;;;;;;;;5017380;28;20541;-68
2022/08/22 00:53:24;;;;;;;13.67;6.30;;;;;;;;;;5017604;28;20184;-68
2022/08/22 00:56:01;;;;;;;11.27;5.33;;;;;;;;;;5018862;28;20184;-66
2022/08/22 00:58:33;;;;;;;10.00;5.37;;;;;;;;;;5019421;28;20202;-68
2022/08/22 01:01:02;;;;;;;20.23;5.60;;;;;;;;;;5017793;28;20195;-68
2022/08/22 01:03:43;;;;;;;10.90;5.67;;;;;;;;;;5018641;28;20179;-68
2022/08/22 01:06:12;;;;;;;8.83;5.03;;;;;;;;;;5019159;28;20279;-68
2022/08/22 01:08:55;;;;;;;8.20;4.27;;;;;;;;;;5017724;28;20718;-67
2022/08/22 01:11:40;;;;;;;13.87;5.23;;;;;;;;;;5017731;28;20203;-68
2022/08/22 01:14:07;;;;;;;12.57;4.53;;;;;;;;;;5018990;28;20727;-68
2022/08/22 01:16:49;;;;;;;14.67;4.23;;;;;;;;;;5018391;28;20172;-69
2022/08/22 01:19:24;;;;;;;9.70;4.20;;;;;;;;;;5018527;28;20302;-68
2022/08/22 01:21:50;;;;;;;10.40;5.33;;;;;;;;;;5016710;28;20219;-68
2022/08/22 01:24:34;;;;;;;8.00;5.10;;;;;;;;;;5018268;28;20190;-68
2022/08/22 01:27:10;;;;;;;7.97;4.23;;;;;;;;;;5016985;28;20187;-66
2022/08/22 01:29:46;;;;;;;9.17;4.20;;;;;;;;;;5018912;28;20202;-68
2022/08/22 01:32:30;;;;;;;9.27;4.17;;;;;;;;;;5018000;28;20207;-68
2022/08/22 01:34:56;;;;;;;8.60;3.47;;;;;;;;;;5017323;28;20198;-68
2022/08/22 01:37:41;;;;;;;10.67;4.10;;;;;;;;;;5018461;28;20180;-68
2022/08/22 01:40:13;;;;;;;13.40;3.67;;;;;;;;;;5018536;28;20175;-68
2022/08/22 01:42:45;;;;;;;8.53;4.00;;;;;;;;;;5017207;28;20204;-68
2022/08/22 01:45:34;;;;;;;10.50;4.23;;;;;;;;;;5019067;28;20583;-68
2022/08/22 01:48:00;;;;;;;10.33;3.70;;;;;;;;;;5017296;28;20266;-68
2022/08/22 01:50:38;;;;;;;9.00;4.30;;;;;;;;;;5017954;28;20215;-68
2022/08/22 01:53:07;;;;;;;9.73;3.87;;;;;;;;;;5018206;28;20266;-68
2022/08/22 01:55:43;;;;;;;10.50;4.40;;;;;;;;;;5018238;28;20187;-68
2022/08/22 01:58:24;;;;;;;10.13;4.10;;;;;;;;;;5017264;28;20226;-68
2022/08/22 02:00:56;;;;;;;14.07;5.50;;;;;;;;;;5017957;28;20200;-68
2022/08/22 02:03:24;;;;;;;12.40;5.67;;;;;;;;;;5018341;28;20667;-68
2022/08/22 02:06:04;;;;;;;10.70;5.47;;;;;;;;;;5016743;28;20191;-68
2022/08/22 02:08:49;;;;;;;13.23;6.83;;;;;;;;;;5017290;28;20176;-68
2022/08/22 02:11:45;;;;;;;9.50;6.53;;;;;;;;;;5016657;28;20214;-68
2022/08/22 02:14:20;;;;;;;15.83;6.53;;;;;;;;;;5013307;28;20202;-68
2022/08/22 02:16:54;;;;;;;7.27;5.10;;;;;;;;;;5016794;28;20594;-68
2022/08/22 02:19:49;;;;;;;11.90;5.20;;;;;;;;;;5018005;28;20192;-67
2022/08/22 02:22:30;;;;;;;10.87;5.70;;;;;;;;;;4997950;28;20351;-66
2022/08/22 02:25:10;;;;;;;10.90;5.73;;;;;;;;;;5017489;28;20581;-68
2022/08/22 02:28:02;;;;;;;13.30;5.23;;;;;;;;;;5015875;28;20182;-68
2022/08/22 02:30:41;;;;;;;14.60;5.43;;;;;;;;;;5013538;28;20187;-68
2022/08/22 02:33:10;;;;;;;10.33;5.07;;;;;;;;;;5016860;28;20510;-67
2022/08/22 02:35:36;;;;;;;10.60;4.80;;;;;;;;;;5016606;28;20183;-67
2022/08/22 02:38:08;;;;;;;12.97;5.73;;;;;;;;;;5015366;28;20687;-68
2022/08/22 02:40:38;;;;;;;10.70;4.70;;;;;;;;;;5017046;28;20161;-65
2022/08/22 02:43:26;;;;;;;10.27;5.00;;;;;;;;;;5015319;28;20602;-67
2022/08/22 02:45:55;;;;;;;12.07;4.77;;;;;;;;;;5015292;28;20194;-67
2022/08/22 02:48:30;;;;;;;10.27;4.83;;;;;;;;;;5014958;28;20202;-68
2022/08/22 02:51:08;;;;;;;9.43;4.97;;;;;;;;;;5016732;28;20205;-67
2022/08/22 02:53:53;;;;;;;8.93;4.83;;;;;;;;;;5015042;28;20214;-67
2022/08/22 02:56:22;;;;;;;12.60;5.20;;;;;;;;;;5014909;28;20192;-67
2022/08/22 02:58:52;;;;;;;9.97;5.20;;;;;;;;;;5016405;28;20246;-67
2022/08/22 03:01:33;;;;;;;11.37;4.70;;;;;;;;;;5016573;28;20672;-67
2022/08/22 03:04:14;;;;;;;8.70;5.13;;;;;;;;;;5014710;28;20168;-67
2022/08/22 03:06:45;;;;;;;8.53;4.73;;;;;;;;;;5016425;28;20265;-67
2022/08/22 03:09:14;;;;;;;9.13;4.93;;;;;;;;;;5016527;28;20188;-67
2022/08/22 03:11:43;;;;;;;11.47;5.27;;;;;;;;;;5016105;28;20211;-68
2022/08/22 03:14:13;;;;;;;11.70;5.07;;;;;;;;;;5017386;28;20191;-67
2022/08/22 03:16:49;;;;;;;9.73;4.87;;;;;;;;;;5017360;28;20168;-68
2022/08/22 03:19:18;;;;;;;11.90;5.20;;;;;;;;;;5015334;28;20207;-68
2022/08/22 03:21:51;;;;;;;12.23;5.77;;;;;;;;;;5016932;28;20207;-68
2022/08/22 03:24:20;;;;;;;9.73;5.23;;;;;;;;;;5019833;28;20167;-68
2022/08/22 03:27:03;;;;;;;13.40;5.90;;;;;;;;;;5018218;28;20176;-68
2022/08/22 03:29:32;;;;;;;16.77;5.70;;;;;;;;;;5014833;28;20176;-67
2022/08/22 03:32:10;;;;;;;9.27;5.37;;;;;;;;;;5014700;28;20246;-68
2022/08/22 03:34:37;;;;;;;10.87;5.77;;;;;;;;;;5016345;28;20262;-69
2022/08/22 03:37:06;;;;;;;13.13;6.00;;;;;;;;;;5016221;28;20183;-68
2022/08/22 03:39:55;;;;;;;11.70;5.87;;;;;;;;;;5015007;28;20217;-69
2022/08/22 03:42:30;;;;;;;15.27;6.27;;;;;;;;;;5013257;28;20269;-69
2022/08/22 03:45:10;;;;;;;8.90;5.23;;;;;;;;;;5016649;28;20225;-69
2022/08/22 03:47:46;;;;;;;12.03;5.80;;;;;;;;;;5015319;28;20226;-69
2022/08/22 03:50:34;;;;;;;12.33;5.30;;;;;;;;;;5017008;28;20647;-69
2022/08/22 03:53:13;;;;;;;11.97;5.70;;;;;;;;;;5016558;28;20160;-69
2022/08/22 03:55:39;;;;;;;12.90;5.70;;;;;;;;;;5016683;28;20164;-69
2022/08/22 03:58:17;;;;;;;10.43;5.33;;;;;;;;;;5016412;28;20293;-69
2022/08/22 04:00:46;;;;;;;10.27;6.03;;;;;;;;;;5015771;28;20179;-69
2022/08/22 04:03:15;;;;;;;14.80;6.00;;;;;;;;;;5017484;28;20676;-69
2022/08/22 04:06:00;;;;;;;13.60;5.40;;;;;;;;;;5016840;28;20549;-69
2022/08/22 04:08:45;;;;;;;11.13;5.50;;;;;;;;;;5016677;28;20263;-69
2022/08/22 04:11:41;;;;;;;12.33;5.73;;;;;;;;;;5015449;28;20215;-68
2022/08/22 04:14:07;;;;;;;9.63;5.33;;;;;;;;;;5016995;28;20223;-69
2022/08/22 04:16:45;;;;;;;9.73;5.47;;;;;;;;;;5017296;28;20686;-69
2022/08/22 04:19:28;;;;;;;15.10;6.20;;;;;;;;;;5014896;28;20203;-69
2022/08/22 04:22:07;;;;;;;10.87;5.87;;;;;;;;;;5013500;28;20273;-69
2022/08/22 04:24:42;;;;;;;11.33;6.63;;;;;;;;;;5013570;28;20176;-69
2022/08/22 04:27:24;;;;;;;12.97;6.20;;;;;;;;;;5014906;28;20183;-69
2022/08/22 04:30:06;;;;;;;12.87;6.10;;;;;;;;;;5014518;28;20714;-68
2022/08/22 04:32:36;;;;;;;13.67;6.37;;;;;;;;;;5013545;28;20231;-68
2022/08/22 04:35:11;;;;;;;13.93;6.43;;;;;;;;;;5013611;28;20184;-68
2022/08/22 04:37:46;;;;;;;12.80;6.03;;;;;;;;;;5015023;28;20247;-69
2022/08/22 04:40:17;;;;;;;10.77;6.50;;;;;;;;;;5015336;28;20211;-71
2022/08/22 04:42:47;;;;;;;11.53;6.10;;;;;;;;;;5015399;28;20192;-69
2022/08/22 04:45:22;;;;;;;9.40;6.33;;;;;;;;;;5014990;28;20588;-68
2022/08/22 04:47:58;;;;;;;11.00;6.87;;;;;;;;;;5014144;28;20278;-69
2022/08/22 04:50:27;;;;;;;12.00;6.93;;;;;;;;;;5015499;28;20172;-69
2022/08/22 04:52:56;;;;;;;14.80;7.00;;;;;;;;;;5013748;28;20203;-69
2022/08/22 04:55:22;;;;;;;16.17;7.00;;;;;;;;;;5014450;28;20710;-69
2022/08/22 04:58:07;;;;;;;13.50;6.30;;;;;;;;;;5015942;28;20180;-69
2022/08/22 05:00:39;;;;;;;15.70;6.80;;;;;;;;;;5015727;28;20206;-69
2022/08/22 05:03:09;;;;;;;11.07;6.83;;;;;;;;;;5014584;28;20183;-69
2022/08/22 05:05:37;;;;;;;14.27;6.67;;;;;;;;;;5015459;28;20183;-69
2022/08/22 05:08:05;;;;;;;11.87;6.53;;;;;;;;;;5014397;28;20536;-69
2022/08/22 05:10:39;;;;;;;16.13;7.20;;;;;;;;;;5036699;22;20266;-67
2022/08/22 05:13:11;;;;;;;13.20;6.77;;;;;;;;;;5031325;28;20169;-68
2022/08/22 05:15:39;;;;;;;14.53;6.50;;;;;;;;;;5031190;28;20228;-67
2022/08/22 05:18:10;;;;;;;14.13;7.13;;;;;;;;;;5032487;28;20203;-69
2022/08/22 05:20:37;;;;;;;17.07;7.07;;;;;;;;;;5032195;28;20199;-67
2022/08/22 05:23:24;;;;;;;15.93;7.90;;;;;;;;;;5032266;28;20171;-69
2022/08/22 05:25:53;;;;;;;14.53;8.17;;;;;;;;;;5033421;28;20210;-69
2022/08/22 05:28:21;;;;;;;12.23;7.00;;;;;;;;;;5036119;28;20210;-69
2022/08/22 05:30:48;;;;;;;17.73;7.67;;;;;;;;;;5035969;28;20203;-67
2022/08/22 05:33:14;;;;;;;18.23;8.07;;;;;;;;;;5034426;28;20270;-67
2022/08/22 05:35:48;;;;;;;15.87;8.23;;;;;;;;;;5034549;28;20620;-67
2022/08/22 05:38:18;;;;;;;14.27;7.47;;;;;;;;;;5035844;28;20248;-67
2022/08/22 05:40:47;;;;;;;17.63;8.37;;;;;;;;;;5035550;28;20286;-67
2022/08/22 05:43:13;;;;;;;15.90;7.90;;;;;;;;;;5034422;28;20274;-67
2022/08/22 05:45:40;;;;;;;16.10;7.90;;;;;;;;;;5035525;28;20210;-66
2022/08/22 05:48:08;;;;;;;15.90;8.07;;;;;;;;;;5035515;28;20225;-67
2022/08/22 05:50:46;;;;;;;17.27;7.27;;;;;;;;;;5034170;28;20290;-67
2022/08/22 05:53:15;;;;;;;18.87;8.60;;;;;;;;;;5035521;28;20215;-67
2022/08/22 05:55:56;;;;;;;16.87;8.17;;;;;;;;;;5035666;28;20190;-67
2022/08/22 05:58:34;;;;;;;18.53;8.33;;;;;;;;;;5035769;28;20282;-69
2022/08/22 06:01:17;;;;;;;22.37;8.67;;;;;;;;;;5035364;28;20277;-67
2022/08/22 06:03:55;;;;;;;16.70;7.97;;;;;;;;;;5035319;28;20168;-67
2022/08/22 06:06:22;;;;;;;18.67;7.60;;;;;;;;;;5034055;28;20167;-67
2022/08/22 06:09:02;;;;;;;13.77;8.03;;;;;;;;;;5033982;28;20197;-67
2022/08/22 06:11:39;;;;;;;17.50;7.60;;;;;;;;;;5033794;28;20219;-67
2022/08/22 06:14:35;;;;;;;24.73;8.77;;;;;;;;;;5035483;28;20241;-68
2022/08/22 06:17:06;;;;;;;14.93;7.93;;;;;;;;;;5017573;28;20201;-67
2022/08/22 06:19:35;;;;;;;21.57;8.93;;;;;;;;;;5033602;28;20255;-67
2022/08/22 06:22:02;;;;;;;25.73;8.53;;;;;;;;;;5035891;28;20171;-67
2022/08/22 06:24:28;;;;;;;16.47;7.97;;;;;;;;;;5033674;28;20183;-67
2022/08/22 06:26:56;;;;;;;19.63;8.97;;;;;;;;;;5034993;28;20186;-67
2022/08/22 06:29:29;;;;;;;17.97;8.17;;;;;;;;;;5033603;28;20215;-69
2022/08/22 06:31:56;;;;;;;14.03;7.50;;;;;;;;;;5035000;28;20160;-67
2022/08/22 06:34:33;;;;;;;15.10;7.90;;;;;;;;;;5033683;28;20191;-67
2022/08/22 06:37:02;;;;;;;21.37;7.93;;;;;;;;;;5034850;28;20202;-68
2022/08/22 06:39:30;;;;;;;19.33;8.03;;;;;;;;;;5033755;28;20202;-67
2022/08/22 06:42:02;;;;;;;19.70;8.63;;;;;;;;;;5033561;28;20552;-67
2022/08/22 06:44:48;;;;;;;14.43;8.90;;;;;;;;;;5033295;28;20179;-67
2022/08/22 06:47:17;;;;;;;16.73;8.80;;;;;;;;;;5020413;28;20198;-67
2022/08/22 06:49:44;;;;;;;22.83;8.67;;;;;;;;;;5034663;28;20609;-67
2022/08/22 06:52:22;;;;;;;17.07;8.47;;;;;;;;;;5034631;28;20209;-67
2022/08/22 06:54:49;;;;;;;21.07;9.37;;;;;;;;;;5034948;28;20273;-67
2022/08/22 06:57:32;;;;;;;20.97;9.90;;;;;;;;;;5035100;28;20207;-67
2022/08/22 06:59:59;;;;;;;16.90;9.17;;;;;;;;;;5033816;28;20211;-68
2022/08/22 07:02:25;;;;;;;24.80;9.30;;;;;;;;;;5034213;28;20171;-67
2022/08/22 07:04:52;;;;;;;22.17;8.73;;;;;;;;;;5033137;28;20266;-67
2022/08/22 07:07:19;;;;;;;16.50;8.43;;;;;;;;;;5032889;28;20258;-69
2022/08/22 07:09:49;;;;;;;20.33;8.97;;;;;;;;;;5032597;28;20195;-68
2022/08/22 07:12:17;;;;;;;20.90;10.47;;;;;;;;;;5034376;28;20250;-68
2022/08/22 07:14:45;;;;;;;23.17;10.20;;;;;;;;;;5033990;28;20179;-68
2022/08/22 07:17:25;;;;;;;22.13;9.30;;;;;;;;;;5032586;28;20662;-68
2022/08/22 07:20:10;;;;;;;20.93;10.43;;;;;;;;;;5033981;28;20218;-68
2022/08/22 07:22:37;;;;;;;24.63;10.40;;;;;;;;;;5033841;28;20171;-68
2022/08/22 07:25:09;;;;;;;23.77;10.27;;;;;;;;;;5032455;28;20179;-68
2022/08/22 07:27:46;;;;;;;23.23;10.57;;;;;;;;;;5033637;28;20229;-68
2022/08/22 07:30:15;;;;;;;27.90;9.87;;;;;;;;;;5033716;28;20202;-68
2022/08/22 07:32:44;;;;;;;23.03;10.10;;;;;;;;;;5033676;28;20179;-68
2022/08/22 07:35:19;;;;;;;19.43;9.23;;;;;;;;;;5032303;28;20329;-68
2022/08/22 07:38:00;;;;;;;19.70;8.63;;;;;;;;;;5032286;28;20278;-68
2022/08/22 07:40:30;;;;;;;17.10;9.77;;;;;;;;;;5032216;28;20203;-68
2022/08/22 07:43:03;;;;;;;25.33;10.07;;;;;;;;;;5032198;28;20178;-68
2022/08/22 07:45:37;;;;;;;23.80;9.97;;;;;;;;;;5033521;28;20175;-68
2022/08/22 07:48:22;;;;;;;19.60;9.23;;;;;;;;;;5031632;28;20273;-68
2022/08/22 07:50:53;;;;;;;24.20;9.77;;;;;;;;;;5033169;28;20199;-68
2022/08/22 07:53:28;;;;;;;23.87;10.33;;;;;;;;;;5031974;28;20237;-68
2022/08/22 07:55:56;;;;;;;21.83;9.70;;;;;;;;;;5033582;28;20639;-68
2022/08/22 07:58:23;;;;;;;27.33;9.90;;;;;;;;;;5033544;28;20207;-68
2022/08/22 08:00:50;;;;;;;19.90;9.10;;;;;;;;;;5033062;28;20207;-68
2022/08/22 08:03:17;;;;;;;18.03;9.37;;;;;;;;;;5033050;28;20181;-68
2022/08/22 08:05:44;;;;;;;16.93;9.60;;;;;;;;;;5032975;28;20201;-68
2022/08/22 08:08:23;;;;;;;18.77;10.73;;;;;;;;;;5031713;28;20560;-68
2022/08/22 08:10:51;;;;;;;26.23;10.73;;;;;;;;;;5031775;28;20225;-68
2022/08/22 08:13:24;;;;;;;13.67;10.30;;;;;;;;;;5031993;28;20678;-68
2022/08/22 08:15:50;;;;;;;17.63;11.30;;;;;;;;;;5032995;28;20250;-68
2022/08/22 08:18:20;;;;;;;21.10;10.87;;;;;;;;;;5031430;28;20203;-68
2022/08/22 08:20:51;;;;;;;16.83;9.90;;;;;;;;;;5031766;28;20202;-68
2022/08/22 08:23:18;;;;;;;19.20;10.43;;;;;;;;;;5032855;28;20175;-68
2022/08/22 08:26:01;;;;;;;19.47;10.70;;;;;;;;;;5032914;28;20564;-69
2022/08/22 08:28:33;;;;;;;20.43;9.60;;;;;;;;;;5032854;28;20183;-68
2022/08/22 08:31:06;;;;;;;21.00;9.43;;;;;;;;;;5032838;28;20670;-68
2022/08/22 08:33:32;;;;;;;16.27;9.60;;;;;;;;;;5031835;28;20562;-68
2022/08/22 08:36:19;;;;;;;16.90;8.70;;;;;;;;;;5032725;28;20183;-68
2022/08/22 08:38:49;;;;;;;20.63;9.40;;;;;;;;;;5017872;28;20297;-67
2022/08/22 08:41:38;;;;;;;17.50;10.27;;;;;;;;;;5032784;28;20743;-68
2022/08/22 08:44:23;;;;;;;18.23;10.33;;;;;;;;;;5024954;28;20272;-68
2022/08/22 08:47:07;;;;;;;25.63;10.40;;;;;;;;;;5032589;28;20179;-68
2022/08/22 08:49:33;;;;;;;17.27;9.93;;;;;;;;;;5031141;28;20558;-68
2022/08/22 08:52:16;;;;;;;18.77;9.07;;;;;;;;;;5031237;28;20187;-68
2022/08/22 08:54:42;;;;;;;24.07;7.80;;;;;;;;;;5032578;28;20167;-68
2022/08/22 08:57:08;;;;;;;15.90;7.97;;;;;;;;;;5031308;28;20274;-68
2022/08/22 08:59:53;;;;;;;18.73;7.70;;;;;;;;;;5032548;28;20290;-68
2022/08/22 09:02:46;;;;;;;15.37;7.87;;;;;;;;;;5036449;28;20172;-68
2022/08/22 09:05:20;;;;;;;15.70;7.37;;;;;;;;;;5036652;28;20186;-68
2022/08/22 09:07:50;;;;;;;18.03;6.80;;;;;;;;;;5036621;28;20513;-68
2022/08/22 09:10:22;;;;;;;11.67;7.30;;;;;;;;;;5036435;28;20215;-68
2022/08/22 09:12:54;;;;;;;12.87;6.13;;;;;;;;;;5035240;28;20179;-68
2022/08/22 09:15:31;;;;;;;15.90;7.30;;;;;;;;;;5034957;28;20180;-68
2022/08/22 09:18:16;;;;;;;15.60;6.27;;;;;;;;;;5036383;28;20160;-68
2022/08/22 09:21:01;;;;;;;17.93;6.33;;;;;;;;;;5036323;28;20187;-68
2022/08/22 09:23:33;;;;;;;12.90;5.87;;;;;;;;;;5036342;28;20166;-68
2022/08/22 09:26:01;;;;;;;19.33;5.23;;;;;;;;;;5036152;28;20171;-68
2022/08/22 09:28:31;;;;;;;15.00;4.47;;;;;;;;;;5036076;28;20187;-67
2022/08/22 09:31:10;;;;;;;12.03;3.83;;;;;;;;;;5035927;28;20305;-68
2022/08/22 09:33:51;;;;;;;10.00;3.23;;;;;;;;;;5036420;28;20576;-68
2022/08/22 09:36:36;;;;;;;8.73;3.70;;;;;;;;;;5034596;28;20175;-68
2022/08/22 09:39:14;;;;;;;9.57;3.47;;;;;;;;;;5034489;28;20253;-68
2022/08/22 09:41:54;;;;;;;7.97;3.33;;;;;;;;;;5034291;28;20202;-68
2022/08/22 09:44:32;;;;;;;8.50;3.80;;;;;;;;;;5034366;28;20175;-68
2022/08/22 09:47:22;;;;;;;7.30;3.30;;;;;;;;;;5034632;28;20512;-68
2022/08/22 09:50:07;;;;;;;13.40;4.93;;;;;;;;;;5027750;28;20214;-68
2022/08/22 09:52:48;;;;;;;9.13;4.37;;;;;;;;;;5035604;28;20186;-68
2022/08/22 09:55:17;;;;;;;10.90;3.87;;;;;;;;;;5035708;28;20195;-69
2022/08/22 09:57:50;;;;;;;8.63;3.40;;;;;;;;;;5034051;28;20612;-68
2022/08/22 10:00:32;;;;;;;13.17;3.70;;;;;;;;;;5035627;28;20195;-68
2022/08/22 10:03:02;;;;;;;9.87;3.73;;;;;;;;;;5035336;28;20171;-68
2022/08/22 10:05:29;;;;;;;9.50;3.97;;;;;;;;;;5035470;28;20302;-68
2022/08/22 10:08:11;;;;;;;7.77;3.50;;;;;;;;;;5035440;28;20186;-68
2022/08/22 10:10:49;;;;;;;9.17;2.97;;;;;;;;;;5034977;28;20249;-68
2022/08/22 10:13:22;;;;;;;6.93;3.10;;;;;;;;;;5033716;28;20654;-70
2022/08/22 10:15:55;;;;;;;9.37;3.47;;;;;;;;;;5035402;28;20592;-68
2022/08/22 10:18:33;;;;;;;8.97;3.30;;;;;;;;;;5033692;28;20199;-68
2022/08/22 10:21:11;;;;;;;8.27;3.30;;;;;;;;;;5034707;28;20203;-69
2022/08/22 10:23:52;;;;;;;12.63;3.60;;;;;;;;;;5036448;28;20639;-68
2022/08/22 10:26:32;;;;;;;7.40;4.20;;;;;;;;;;5036177;28;20620;-68
2022/08/22 10:29:14;;;;;;;12.73;3.63;;;;;;;;;;5035744;28;20174;-67
2022/08/22 10:31:43;;;;;;;14.03;3.67;;;;;;;;;;5034549;28;20210;-67
2022/08/22 10:34:13;;;;;;;11.23;3.00;;;;;;;;;;5036013;28;20175;-68
2022/08/22 10:36:50;;;;;;;6.33;3.13;;;;;;;;;;5035908;28;20179;-67
2022/08/22 10:39:22;;;;;;;6.97;3.33;;;;;;;;;;5034189;28;20630;-67
2022/08/22 10:42:06;;;;;;;10.33;3.30;;;;;;;;;;5035703;28;20167;-68
2022/08/22 10:44:38;;;;;;;8.13;3.30;;;;;;;;;;5034275;28;20179;-67
2022/08/22 10:47:16;;;;;;;11.67;3.53;;;;;;;;;;5034126;28;20225;-67
2022/08/22 10:49:48;;;;;;;11.13;3.97;;;;;;;;;;5035419;28;20418;-68
2022/08/22 10:52:19;;;;;;;7.80;3.10;;;;;;;;;;5034184;28;20183;-68
2022/08/22 10:54:48;;;;;;;11.97;2.97;;;;;;;;;;5035813;28;20191;-68
2022/08/22 10:57:24;;;;;;;8.07;3.40;;;;;;;;;;5033936;28;20553;-68
2022/08/22 11:00:11;;;;;;;9.63;3.37;;;;;;;;;;5033828;28;20221;-67
2022/08/22 11:02:40;;;;;;;7.40;3.20;;;;;;;;;;5021267;28;20197;-67
2022/08/22 11:05:24;;;;;;;4.47;3.00;;;;;;;;;;5035949;28;20171;-68
2022/08/22 11:07:50;;;;;;;10.00;2.90;;;;;;;;;;5034201;28;20686;-68
2022/08/22 11:10:26;;;;;;;7.53;3.07;;;;;;;;;;5033810;28;20743;-68
2022/08/22 11:13:02;;;;;;;10.00;3.47;;;;;;;;;;5061684;22;20234;-71
2022/08/22 11:15:37;;;;;;;8.43;3.10;;;;;;;;;;5019628;28;20175;-70
2022/08/22 11:18:13;;;;;;;7.00;3.17;;;;;;;;;;5036516;28;20175;-69
2022/08/22 11:20:51;;;;;;;6.57;3.10;;;;;;;;;;5018445;28;20631;-70
2022/08/22 11:23:17;;;;;;;6.83;3.13;;;;;;;;;;5035118;28;20626;-70
2022/08/22 11:26:07;;;;;;;7.47;3.03;;;;;;;;;;5036090;28;20171;-70
2022/08/22 11:28:58;;;;;;;5.57;3.43;;;;;;;;;;4981672;28;20285;-70
2022/08/22 11:31:43;;;;;;;5.97;3.50;;;;;;;;;;5017027;28;20186;-69
2022/08/22 11:34:09;;;;;;;10.00;3.47;;;;;;;;;;5016905;28;20558;-70
2022/08/22 11:36:45;;;;;;;8.50;3.47;;;;;;;;;;5016712;28;20183;-69
2022/08/22 11:39:30;;;;;;;9.37;3.50;;;;;;;;;;5017567;28;20364;-69
2022/08/22 11:42:05;;;;;;;9.47;3.67;;;;;;;;;;5016888;28;20253;-69
2022/08/22 11:44:50;;;;;;;9.03;3.00;;;;;;;;;;5035346;28;20179;-69
2022/08/22 11:47:19;;;;;;;7.83;3.60;;;;;;;;;;5035271;28;20175;-70
2022/08/22 11:49:45;;;;;;;7.30;3.30;;;;;;;;;;5016994;28;20221;-70
2022/08/22 11:52:20;;;;;;;8.93;3.17;;;;;;;;;;5034255;28;20579;-71
2022/08/22 11:54:58;;;;;;;7.93;3.53;;;;;;;;;;5016889;28;20182;-70
2022/08/22 11:57:24;;;;;;;8.30;3.70;;;;;;;;;;5016452;28;20270;-70
2022/08/22 12:00:10;;;;;;;10.37;3.90;;;;;;;;;;5034553;28;20617;-70
2022/08/22 12:02:48;;;;;;;8.67;3.53;;;;;;;;;;5034098;28;20678;-70
2022/08/22 12:05:22;;;;;;;9.67;3.33;;;;;;;;;;5016427;28;20203;-70
2022/08/22 12:07:54;;;;;;;7.75;3.33;;;;;;;;;;5016483;28;20183;-70
2022/08/22 12:10:24;;;;;;;12.93;3.17;;;;;;;;;;5016356;28;20229;-68
2022/08/22 12:12:54;;;;;;;9.55;3.72;;;;;;;;;;5016271;28;20214;-71
2022/08/22 12:15:34;;;;;;;7.97;3.47;;;;;;;;;;5034859;28;20599;-70
2022/08/22 12:18:06;;;;;;;8.10;4.00;;;;;;;;;;5033847;28;20611;-69
2022/08/22 12:20:46;;;;;;;8.40;3.77;;;;;;;;;;5033890;28;20171;-69
2022/08/22 12:23:30;;;;;;;7.97;3.60;;;;;;;;;;5015983;28;20205;-69
2022/08/22 12:26:10;;;;;;;11.07;3.70;;;;;;;;;;5033988;28;20179;-70
2022/08/22 12:28:55;;;;;;;10.13;3.17;;;;;;;;;;5033640;28;20170;-69
2022/08/22 12:31:27;;;;;;;8.05;3.70;;;;;;;;;;5033543;28;20183;-69
2022/08/22 12:33:58;;;;;;;7.70;3.60;;;;;;;;;;5015630;28;20571;-69
2022/08/22 12:36:35;;;;;;;8.95;3.42;;;;;;;;;;5019845;28;20179;-69
2022/08/22 12:39:10;;;;;;;7.00;3.50;;;;;;;;;;5038092;28;20199;-68
2022/08/22 12:41:55;;;;;;;4.00;2.95;;;;;;;;;;5037684;28;20191;-69
2022/08/22 12:44:40;;;;;;;8.77;2.95;;;;;;;;;;5019937;28;20282;-69
2022/08/22 12:47:06;;;;;;;4.95;2.88;;;;;;;;;;5019979;28;20179;-68
2022/08/22 12:49:41;;;;;;;9.27;3.00;;;;;;;;;;5037708;28;20199;-69
2022/08/22 12:52:18;;;;;;;6.17;3.37;;;;;;;;;;5019828;28;20584;-69
2022/08/22 12:55:03;;;;;;;5.28;3.15;;;;;;;;;;5019949;28;20175;-69
2022/08/22 12:57:29;;;;;;;3.90;2.60;;;;;;;;;;5037637;28;20160;-69
2022/08/22 12:59:59;;;;;;;8.43;3.50;;;;;;;;;;5037538;28;20215;-69
2022/08/22 13:02:27;;;;;;;11.43;3.65;;;;;;;;;;5037320;28;20203;-69
2022/08/22 13:05:08;;;;;;;7.07;3.60;;;;;;;;;;5019564;28;20171;-69
2022/08/22 13:07:35;;;;;;;7.03;3.47;;;;;;;;;;5037147;28;20163;-68
2022/08/22 13:10:13;;;;;;;6.17;3.13;;;;;;;;;;5019278;28;20266;-69
2022/08/22 13:12:44;;;;;;;10.60;3.10;;;;;;;;;;5036824;28;20222;-68
2022/08/22 13:15:28;;;;;;;12.73;3.53;;;;;;;;;;5019219;28;20636;-68
2022/08/22 13:17:54;;;;;;;4.80;3.03;;;;;;;;;;5018903;28;20187;-68
2022/08/22 13:20:23;;;;;;;17.10;3.70;;;;;;;;;;5036729;28;20640;-68
2022/08/22 13:22:49;;;;;;;9.80;3.57;;;;;;;;;;5037201;28;20568;-68
2022/08/22 13:25:22;;;;;;;8.30;3.03;;;;;;;;;;5037918;28;20179;-69
2022/08/22 13:27:52;;;;;;;12.07;3.50;;;;;;;;;;5037139;28;20252;-69
2022/08/22 13:30:21;;;;;;;10.43;3.73;;;;;;;;;;5019201;28;20647;-69
2022/08/22 13:32:52;;;;;;;7.70;3.20;;;;;;;;;;5019345;28;20203;-69
2022/08/22 13:35:21;;;;;;;6.50;3.27;;;;;;;;;;5037617;28;20167;-69
2022/08/22 13:37:50;;;;;;;6.13;3.08;;;;;;;;;;5038269;28;20245;-69
2022/08/22 13:40:30;;;;;;;8.40;3.20;;;;;;;;;;5037945;28;20245;-70
2022/08/22 13:43:07;;;;;;;13.27;4.10;;;;;;;;;;5038408;28;20198;-69
2022/08/22 13:45:34;;;;;;;7.63;3.58;;;;;;;;;;5037454;28;20577;-69
2022/08/22 13:48:01;;;;;;;7.60;3.90;;;;;;;;;;5036740;28;20170;-69
2022/08/22 13:50:31;;;;;;;7.00;3.67;;;;;;;;;;5019450;28;20178;-69
2022/08/22 13:53:10;;;;;;;7.78;3.60;;;;;;;;;;5036762;28;20199;-68
2022/08/22 13:55:48;;;;;;;6.35;3.35;;;;;;;;;;5037388;28;20247;-69
2022/08/22 13:58:14;;;;;;;13.30;3.75;;;;;;;;;;5036701;28;20565;-69
2022/08/22 14:00:52;;;;;;;7.47;3.72;;;;;;;;;;5018863;28;20175;-69
2022/08/22 14:03:22;;;;;;;8.82;3.50;;;;;;;;;;5035971;28;20249;-69
2022/08/22 14:05:50;;;;;;;6.60;3.50;;;;;;;;;;5036650;28;20178;-69
2022/08/22 14:08:26;;;;;;;8.43;3.40;;;;;;;;;;5036599;28;20179;-69
2022/08/22 14:10:52;;;;;;;6.50;3.23;;;;;;;;;;5036323;28;20189;-69
2022/08/22 14:13:36;;;;;;;5.63;3.28;;;;;;;;;;5035601;28;20231;-70
2022/08/22 14:16:04;;;;;;;5.65;3.38;;;;;;;;;;5036059;28;20175;-70
2022/08/22 14:18:50;;;;;;;7.80;3.55;;;;;;;;;;5036166;28;20255;-70
2022/08/22 14:21:28;;;;;;;6.97;3.45;;;;;;;;;;5036279;28;20159;-70
2022/08/22 14:23:59;;;;;;;7.22;4.35;;;;;;;;;;5035893;28;20173;-71
2022/08/22 14:26:36;;;;;;;8.50;3.38;;;;;;;;;;5036315;28;20163;-69
2022/08/22 14:29:04;;;;;;;6.80;3.80;;;;;;;;;;5018628;28;20281;-69
2022/08/22 14:31:30;;;;;;;8.32;3.67;;;;;;;;;;5036388;28;20468;-69
2022/08/22 14:33:56;;;;;;;8.07;3.63;;;;;;;;;;5036765;28;20174;-69
2022/08/22 14:36:25;;;;;;;8.15;3.35;;;;;;;;;;5035817;28;20182;-69
2022/08/22 14:38:55;;;;;;;9.32;3.83;;;;;;;;;;5034916;28;20403;-68
2022/08/22 14:41:24;;;;;;;9.43;4.00;;;;;;;;;;5036011;28;20175;-68
2022/08/22 14:44:11;;;;;;;9.52;3.88;;;;;;;;;;5037510;28;20167;-68
2022/08/22 14:47:03;;;;;;;6.60;3.45;;;;;;;;;;5035708;28;20175;-68
2022/08/22 14:49:29;;;;;;;7.43;4.05;;;;;;;;;;5032795;28;20210;-69
2022/08/22 14:52:04;;;;;;;8.63;3.80;;;;;;;;;;5036014;28;20198;-69
2022/08/22 14:54:30;;;;;;;7.47;3.55;;;;;;;;;;5018657;28;20541;-70
2022/08/22 14:56:56;;;;;;;14.53;5.77;;;;;;;;;;5036925;28;20198;-67
2022/08/22 14:59:36;;;;;;;8.73;4.00;;;;;;;;;;5034494;28;20570;-67
2022/08/22 15:02:09;;;;;;;5.73;3.53;;;;;;;;;;5035837;28;20606;-68
2022/08/22 15:04:36;;;;;;;6.90;3.93;;;;;;;;;;5035106;28;20241;-68
2022/08/22 15:07:03;;;;;;;8.30;3.57;;;;;;;;;;5034956;28;20177;-67
2022/08/22 15:09:49;;;;;;;8.03;4.23;;;;;;;;;;5017469;28;20202;-67
2022/08/22 15:12:21;;;;;;;9.60;5.20;;;;;;;;;;5003746;28;20245;-67
2022/08/22 15:14:48;;;;;;;6.93;3.80;;;;;;;;;;5035133;28;20179;-68
2022/08/22 15:17:31;;;;;;;7.47;3.30;;;;;;;;;;5034933;28;20180;-66